Time;durP1;ratioP1;P1;durP2;ratioP2;P2;SDS_P1;SDS_P2;PMS_P1;PMS_P2;Temp;Humidity;BMP_temperature;BMP_pressure;BME280_temperature;BME280_humidity;BME280_pressure;Samples;Min_cycle;Max_cycle;Signal;HPM_P1;HPM_P2
2022/03/19 00:00:22;;;;;;;27.95;14.98;;;-3.10;99.80;;;;;;5074390;28;20028;-89
2022/03/19 00:02:48;;;;;;;20.15;11.90;;;-3.00;99.90;;;;;;5074255;28;20059;-89
2022/03/19 00:05:14;;;;;;;19.65;12.52;;;-3.00;99.90;;;;;;5074405;28;20025;-89
2022/03/19 00:07:42;;;;;;;23.05;12.18;;;-3.00;99.90;;;;;;5074310;28;20463;-89
2022/03/19 00:10:09;;;;;;;24.40;12.63;;;-2.90;99.90;;;;;;5074342;28;20024;-89
2022/03/19 00:12:39;;;;;;;23.73;12.95;;;-3.00;99.90;;;;;;5074477;28;20025;-89
2022/03/19 00:15:06;;;;;;;23.10;12.40;;;-2.90;99.90;;;;;;5074122;28;20044;-89
2022/03/19 00:17:32;;;;;;;18.73;11.40;;;-2.90;99.90;;;;;;5074383;28;20032;-89
2022/03/19 00:19:57;;;;;;;19.92;11.60;;;-3.00;99.90;;;;;;5073777;28;20048;-89
2022/03/19 00:22:23;;;;;;;18.50;11.00;;;-2.90;99.90;;;;;;5074082;28;20020;-89
2022/03/19 00:24:49;;;;;;;19.23;11.07;;;-3.00;99.90;;;;;;5073858;28;20017;-89
2022/03/19 00:27:15;;;;;;;18.10;11.05;;;-3.00;99.90;;;;;;5074070;28;20075;-89
2022/03/19 00:29:40;;;;;;;17.90;9.68;;;-3.00;99.90;;;;;;5073352;28;20483;-89
2022/03/19 00:32:06;;;;;;;20.45;10.70;;;-3.10;99.90;;;;;;5074037;28;20020;-89
2022/03/19 00:34:32;;;;;;;20.95;11.95;;;-3.10;99.90;;;;;;5073977;28;20035;-89
2022/03/19 00:36:58;;;;;;;29.17;12.75;;;-3.10;99.90;;;;;;5073877;28;20501;-89
2022/03/19 00:39:24;;;;;;;43.40;16.13;;;-3.20;99.90;;;;;;5074872;28;20103;-89
2022/03/19 00:41:50;;;;;;;25.48;12.30;;;-3.20;99.90;;;;;;5073680;28;20028;-89
2022/03/19 00:44:16;;;;;;;25.60;13.35;;;-3.20;99.90;;;;;;5073700;28;20112;-89
2022/03/19 00:46:41;;;;;;;27.13;13.82;;;-3.20;99.90;;;;;;5073518;28;20486;-88
2022/03/19 00:49:07;;;;;;;25.27;12.80;;;-3.10;99.90;;;;;;5073633;28;20382;-88
2022/03/19 00:51:36;;;;;;;24.83;12.55;;;-3.20;99.90;;;;;;5073676;28;20119;-88
2022/03/19 00:54:02;;;;;;;24.38;12.63;;;-3.20;99.90;;;;;;5075062;28;20021;-88
2022/03/19 00:56:27;;;;;;;23.48;12.52;;;-3.20;99.90;;;;;;5073535;28;20021;-88
2022/03/19 00:58:54;;;;;;;22.83;11.73;;;-3.30;99.90;;;;;;5075243;28;20035;-88
2022/03/19 01:01:20;;;;;;;25.67;13.65;;;-3.30;99.90;;;;;;5073352;28;20532;-87
2022/03/19 01:03:46;;;;;;;29.08;15.02;;;-3.30;99.90;;;;;;5073411;28;20025;-88
2022/03/19 01:06:11;;;;;;;34.83;15.48;;;-3.30;99.90;;;;;;5074174;28;20131;-88
2022/03/19 01:08:37;;;;;;;25.98;13.75;;;-3.30;99.90;;;;;;5073426;28;20459;-88
2022/03/19 01:11:03;;;;;;;30.27;14.38;;;-3.40;99.80;;;;;;5073434;28;20115;-89
2022/03/19 01:13:29;;;;;;;29.00;15.07;;;-3.40;99.90;;;;;;5073522;28;20052;-88
2022/03/19 01:15:54;;;;;;;36.80;15.80;;;-3.50;99.90;;;;;;5073195;28;20119;-88
2022/03/19 01:18:20;;;;;;;32.80;16.52;;;-3.50;99.90;;;;;;5067772;28;20064;-88
2022/03/19 01:20:45;;;;;;;32.35;15.10;;;-3.50;99.90;;;;;;5054221;28;20021;-88
2022/03/19 01:23:11;;;;;;;39.95;16.88;;;-3.60;99.90;;;;;;5037344;28;20027;-88
2022/03/19 01:25:37;;;;;;;53.72;19.10;;;-3.50;99.90;;;;;;5054260;28;20021;-88
2022/03/19 01:28:04;;;;;;;52.28;16.85;;;-3.50;99.90;;;;;;5036710;28;20032;-88
2022/03/19 01:30:30;;;;;;;40.00;15.18;;;-3.50;99.90;;;;;;5036672;28;20380;-89
2022/03/19 01:32:55;;;;;;;35.13;13.82;;;-3.50;99.90;;;;;;5036569;28;20025;-88
2022/03/19 01:35:21;;;;;;;32.15;14.35;;;-3.50;99.90;;;;;;5036440;28;20395;-88
2022/03/19 01:37:48;;;;;;;27.35;14.93;;;-3.40;99.90;;;;;;5036417;28;20029;-88
2022/03/19 01:40:16;;;;;;;24.45;14.40;;;-3.40;99.90;;;;;;5037194;28;20021;-88
2022/03/19 01:42:45;;;;;;;26.73;14.38;;;-3.40;99.90;;;;;;5040363;28;20406;-88
2022/03/19 01:45:13;;;;;;;27.58;14.50;;;-3.50;99.90;;;;;;5040322;28;20107;-88
2022/03/19 01:47:39;;;;;;;31.27;14.60;;;-3.50;99.90;;;;;;5040439;28;20025;-88
2022/03/19 01:50:05;;;;;;;28.40;13.93;;;-3.50;99.90;;;;;;5040339;28;20032;-88
2022/03/19 01:52:31;;;;;;;25.25;13.43;;;-3.50;99.90;;;;;;5040489;28;20025;-88
2022/03/19 01:54:58;;;;;;;26.95;14.98;;;-3.60;99.90;;;;;;5040263;28;20033;-88
2022/03/19 01:57:27;;;;;;;30.23;15.00;;;-3.60;99.90;;;;;;5040112;28;20029;-88
2022/03/19 01:59:56;;;;;;;24.17;13.77;;;-3.60;99.90;;;;;;5039999;28;20095;-88
2022/03/19 02:02:24;;;;;;;30.73;15.27;;;-3.60;99.90;;;;;;5057690;28;20056;-88
2022/03/19 02:04:50;;;;;;;30.85;15.63;;;-3.70;99.90;;;;;;5039986;28;20480;-87
2022/03/19 02:07:16;;;;;;;27.17;14.20;;;-3.70;99.90;;;;;;5039931;28;20074;-87
2022/03/19 02:09:41;;;;;;;31.27;14.98;;;-3.80;99.90;;;;;;5040011;28;20436;-88
2022/03/19 02:12:08;;;;;;;25.65;14.02;;;-3.90;99.90;;;;;;5039937;28;20033;-87
2022/03/19 02:14:39;;;;;;;25.42;14.40;;;-3.90;99.90;;;;;;5039449;28;20025;-88
2022/03/19 02:17:06;;;;;;;26.48;15.20;;;-3.90;99.90;;;;;;5039905;28;20490;-88
2022/03/19 02:19:33;;;;;;;27.08;14.60;;;-4.00;99.90;;;;;;5039207;28;20408;-88
2022/03/19 02:21:59;;;;;;;26.20;14.00;;;-4.00;99.90;;;;;;5039640;28;20044;-88
2022/03/19 02:27:09;;;;;;;27.25;14.73;;;-4.10;99.90;;;;;;5057913;28;20082;-88
2022/03/19 02:29:34;;;;;;;24.38;14.05;;;-4.10;99.90;;;;;;5039611;28;20479;-87
2022/03/19 02:32:04;;;;;;;30.60;15.65;;;-4.20;99.90;;;;;;5057285;28;20032;-87
2022/03/19 02:34:33;;;;;;;27.80;15.70;;;-4.20;99.90;;;;;;5057132;28;20075;-87
2022/03/19 02:36:59;;;;;;;29.25;14.68;;;-4.20;99.90;;;;;;5039493;28;20029;-87
2022/03/19 02:39:30;;;;;;;32.67;16.52;;;-4.30;99.90;;;;;;5039242;28;20434;-87
2022/03/19 02:41:58;;;;;;;27.60;15.32;;;-4.30;99.90;;;;;;5039485;28;20395;-87
2022/03/19 02:44:24;;;;;;;32.78;15.70;;;-4.30;99.90;;;;;;5057359;28;20032;-87
2022/03/19 02:46:52;;;;;;;31.60;16.05;;;-4.30;99.90;;;;;;5039085;28;20383;-87
2022/03/19 02:49:19;;;;;;;30.85;15.85;;;-4.30;99.90;;;;;;5057068;28;20079;-87
2022/03/19 02:51:47;;;;;;;33.13;16.00;;;-4.30;99.90;;;;;;5039034;28;20029;-87
2022/03/19 02:54:15;;;;;;;30.77;16.17;;;-4.40;99.90;;;;;;5039144;28;20128;-87
2022/03/19 02:56:42;;;;;;;28.27;14.63;;;-4.40;99.90;;;;;;5038930;28;20040;-87
2022/03/19 02:59:18;;;;;;;27.30;15.43;;;-4.40;99.90;;;;;;5056808;28;20028;-88
2022/03/19 03:01:44;;;;;;;27.20;15.85;;;-4.40;99.90;;;;;;5039013;28;20075;-88
2022/03/19 03:04:10;;;;;;;33.65;17.63;;;-4.30;99.90;;;;;;5038947;28;20171;-88
2022/03/19 03:06:42;;;;;;;30.10;16.77;;;-4.30;99.90;;;;;;5038639;28;20067;-88
2022/03/19 03:09:08;;;;;;;37.28;19.00;;;-4.30;99.90;;;;;;5039028;28;20123;-87
2022/03/19 03:11:36;;;;;;;39.13;19.50;;;-4.30;99.90;;;;;;5039015;28;20033;-88
2022/03/19 03:14:02;;;;;;;40.33;19.10;;;-4.30;99.90;;;;;;5038793;28;20577;-88
2022/03/19 03:16:29;;;;;;;39.05;19.35;;;-4.30;99.90;;;;;;5038657;28;20115;-88
2022/03/19 03:18:56;;;;;;;36.67;18.20;;;-4.30;99.90;;;;;;5038361;28;20052;-87
2022/03/19 03:21:22;;;;;;;29.48;17.02;;;-4.30;99.90;;;;;;5056278;28;20013;-87
2022/03/19 03:23:48;;;;;;;30.90;17.02;;;-4.30;99.90;;;;;;5038432;28;20075;-87
2022/03/19 03:26:13;;;;;;;31.52;16.80;;;-4.30;99.90;;;;;;5038711;28;20017;-87
2022/03/19 03:28:39;;;;;;;30.02;15.23;;;-4.30;99.90;;;;;;5056537;28;20037;-88
2022/03/19 03:31:05;;;;;;;30.02;16.05;;;-4.30;99.90;;;;;;5038577;28;20029;-88
2022/03/19 03:33:30;;;;;;;30.48;15.45;;;-4.40;99.90;;;;;;5038350;28;20033;-87
2022/03/19 03:35:56;;;;;;;25.70;14.13;;;-4.40;99.90;;;;;;5038259;28;20024;-88
2022/03/19 03:38:22;;;;;;;31.38;15.65;;;-4.40;99.90;;;;;;5038088;28;20029;-88
2022/03/19 03:40:47;;;;;;;28.95;14.52;;;-4.40;99.90;;;;;;5038148;28;20107;-88
2022/03/19 03:43:13;;;;;;;29.92;15.80;;;-4.40;99.90;;;;;;5038257;28;20089;-88
2022/03/19 03:45:38;;;;;;;35.17;17.08;;;-4.40;99.90;;;;;;5038301;28;20025;-87
2022/03/19 03:48:04;;;;;;;32.70;17.23;;;-4.50;99.90;;;;;;5037967;28;20021;-88
2022/03/19 03:50:31;;;;;;;30.00;16.13;;;-4.50;99.90;;;;;;5038224;28;20107;-87
2022/03/19 03:52:56;;;;;;;36.00;17.30;;;-4.50;99.90;;;;;;5038566;28;20577;-88
2022/03/19 03:55:22;;;;;;;32.28;17.40;;;-4.60;99.90;;;;;;5055893;28;20025;-87
2022/03/19 03:57:48;;;;;;;34.50;17.02;;;-4.60;99.90;;;;;;5038021;28;20064;-87
2022/03/19 04:00:14;;;;;;;36.30;17.10;;;-4.60;99.90;;;;;;5037728;28;20119;-88
2022/03/19 04:02:40;;;;;;;31.25;15.90;;;-4.60;99.90;;;;;;5054745;28;20021;-87
2022/03/19 04:05:08;;;;;;;34.13;16.63;;;-4.60;99.90;;;;;;5037569;28;20090;-88
2022/03/19 04:07:33;;;;;;;31.98;16.15;;;-4.60;99.90;;;;;;5037773;28;20455;-88
2022/03/19 04:09:59;;;;;;;28.90;16.05;;;-4.60;99.90;;;;;;5055662;28;20040;-88
2022/03/19 04:12:25;;;;;;;33.00;16.35;;;-4.60;99.90;;;;;;5055305;28;20033;-87
2022/03/19 04:14:52;;;;;;;33.47;16.92;;;-4.60;99.90;;;;;;5037533;28;20029;-87
2022/03/19 04:17:18;;;;;;;33.63;16.70;;;-4.60;99.90;;;;;;5037414;28;20035;-88
2022/03/19 04:19:44;;;;;;;33.47;16.50;;;-4.60;99.90;;;;;;5037235;28;20045;-88
2022/03/19 04:22:10;;;;;;;31.30;15.70;;;-4.60;99.90;;;;;;5037156;28;20555;-88
2022/03/19 04:24:36;;;;;;;31.60;16.00;;;-4.60;99.90;;;;;;5037359;28;20021;-88
2022/03/19 04:27:02;;;;;;;30.63;15.80;;;-4.70;99.90;;;;;;5037186;28;20058;-88
2022/03/19 04:29:27;;;;;;;31.52;15.60;;;-4.60;99.90;;;;;;5038230;28;20029;-88
2022/03/19 04:31:53;;;;;;;27.73;15.00;;;-4.60;99.90;;;;;;5036823;28;20194;-89
2022/03/19 04:34:19;;;;;;;31.00;14.77;;;-4.60;99.90;;;;;;5037311;28;20032;-89
2022/03/19 04:36:44;;;;;;;32.95;16.45;;;-4.60;99.90;;;;;;5037227;28;20025;-89
2022/03/19 04:39:10;;;;;;;27.48;15.18;;;-4.60;99.90;;;;;;5037179;28;20024;-88
2022/03/19 04:41:38;;;;;;;30.77;14.75;;;-4.60;99.90;;;;;;5054801;28;20098;-88
2022/03/19 04:44:05;;;;;;;29.63;14.40;;;-4.60;99.90;;;;;;5036889;28;20438;-88
2022/03/19 04:46:31;;;;;;;32.30;14.88;;;-4.50;99.90;;;;;;5037181;28;20079;-88
2022/03/19 04:48:56;;;;;;;26.55;13.82;;;-4.50;99.90;;;;;;5037112;28;20029;-88
2022/03/19 04:51:33;;;;;;;27.63;12.20;;;-4.40;99.90;;;;;;5055067;28;20028;-89
2022/03/19 04:54:00;;;;;;;38.47;14.52;;;-4.30;99.90;;;;;;5036993;28;20021;-89
2022/03/19 04:56:28;;;;;;;42.10;18.80;;;-4.20;99.90;;;;;;5054676;28;20045;-89
2022/03/19 04:58:57;;;;;;;53.53;19.77;;;-4.10;99.90;;;;;;5054233;28;20491;-89
2022/03/19 05:01:26;;;;;;;33.28;16.08;;;-4.00;99.90;;;;;;5054077;28;20024;-89
2022/03/19 05:03:52;;;;;;;56.50;18.48;;;-3.90;99.90;;;;;;5054436;28;20021;-89
2022/03/19 05:06:19;;;;;;;52.50;17.80;;;-3.80;99.90;;;;;;5036822;28;20529;-89
2022/03/19 05:08:44;;;;;;;40.17;15.68;;;-3.70;99.90;;;;;;5036801;28;20025;-89
2022/03/19 05:11:12;;;;;;;44.13;15.77;;;-3.60;99.90;;;;;;5036745;28;20029;-89
2022/03/19 05:13:39;;;;;;;38.60;15.23;;;-3.60;99.90;;;;;;5036681;28;20045;-90
2022/03/19 05:16:05;;;;;;;76.05;21.73;;;-3.50;99.90;;;;;;5036308;28;20120;-89
2022/03/19 05:18:30;;;;;;;41.80;16.58;;;-3.40;99.90;;;;;;5036292;28;20080;-89
2022/03/19 05:20:59;;;;;;;31.98;15.00;;;-3.30;99.90;;;;;;5036771;28;20544;-89
2022/03/19 05:23:25;;;;;;;32.40;14.68;;;-3.20;99.90;;;;;;5039526;28;20025;-89
2022/03/19 05:25:52;;;;;;;28.60;14.70;;;-3.10;99.90;;;;;;5036343;28;20543;-88
2022/03/19 05:28:18;;;;;;;51.50;19.15;;;-2.90;99.90;;;;;;5054267;28;20502;-89
2022/03/19 05:30:44;;;;;;;37.75;17.67;;;-2.80;99.90;;;;;;5036397;28;20036;-88
2022/03/19 05:33:11;;;;;;;41.35;16.15;;;-2.70;99.90;;;;;;5036520;28;20025;-88
2022/03/19 05:35:37;;;;;;;37.78;17.13;;;-2.50;99.90;;;;;;5036380;28;20048;-89
2022/03/19 05:38:05;;;;;;;41.08;15.93;;;-2.40;99.90;;;;;;5036275;28;20048;-89
2022/03/19 05:40:31;;;;;;;27.08;13.70;;;-2.20;99.90;;;;;;5036173;28;20071;-89
2022/03/19 05:42:57;;;;;;;34.45;14.95;;;-2.10;99.90;;;;;;5053807;28;20029;-89
2022/03/19 05:45:23;;;;;;;26.52;13.88;;;-1.90;99.90;;;;;;5036328;28;20021;-89
2022/03/19 05:47:48;;;;;;;29.30;14.32;;;-1.90;99.90;;;;;;5036069;28;20021;-90
2022/03/19 05:50:15;;;;;;;29.30;13.55;;;-1.80;99.90;;;;;;5035659;28;20383;-90
2022/03/19 05:52:41;;;;;;;30.58;13.65;;;-1.70;99.90;;;;;;5034443;28;20495;-90
2022/03/19 05:55:08;;;;;;;31.23;14.15;;;-1.60;99.90;;;;;;5032901;28;20064;-90
2022/03/19 05:57:35;;;;;;;27.50;13.50;;;-1.50;99.70;;;;;;5033806;28;20107;-90
2022/03/19 06:00:00;;;;;;;20.60;12.38;;;-1.50;99.70;;;;;;5051709;28;20047;-90
2022/03/19 06:02:26;;;;;;;26.95;11.95;;;-1.40;99.40;;;;;;5034252;28;20025;-90
2022/03/19 06:04:52;;;;;;;28.45;13.98;;;-1.40;98.90;;;;;;5034384;28;20132;-90
2022/03/19 06:07:18;;;;;;;26.27;14.25;;;-1.40;99.00;;;;;;5052015;28;20104;-90
2022/03/19 06:09:44;;;;;;;22.63;12.10;;;-1.40;99.30;;;;;;5035437;28;20116;-90
2022/03/19 06:12:10;;;;;;;24.48;12.40;;;-1.30;99.10;;;;;;5035510;28;20502;-90
2022/03/19 06:14:35;;;;;;;30.65;13.90;;;-1.30;98.70;;;;;;5035473;28;20495;-90
2022/03/19 06:17:01;;;;;;;31.55;13.18;;;-1.30;98.50;;;;;;5035471;28;20025;-90
2022/03/19 06:19:26;;;;;;;23.90;12.15;;;-1.40;97.80;;;;;;5035197;28;20057;-90
2022/03/19 06:21:52;;;;;;;26.42;12.07;;;-1.30;97.60;;;;;;5035440;28;20052;-90
2022/03/19 06:24:17;;;;;;;33.38;14.30;;;-1.30;97.80;;;;;;5053280;28;20475;-90
2022/03/19 06:26:43;;;;;;;21.35;11.82;;;-1.30;97.60;;;;;;5036969;28;20055;-90
2022/03/19 06:29:09;;;;;;;26.90;12.02;;;-1.30;96.90;;;;;;5056822;28;20039;-90
2022/03/19 06:31:34;;;;;;;31.23;13.80;;;-1.30;97.20;;;;;;5039327;28;20029;-90
2022/03/19 06:34:00;;;;;;;23.30;12.05;;;-1.30;96.70;;;;;;5039172;28;20545;-91
2022/03/19 06:39:11;;;;;;;20.55;11.75;;;-1.30;96.80;;;;;;5056803;28;20051;-91
2022/03/19 06:41:36;;;;;;;23.48;12.52;;;-1.20;96.80;;;;;;5057022;28;20027;-90
2022/03/19 06:44:02;;;;;;;26.35;13.77;;;-1.20;96.70;;;;;;5038916;28;20384;-90
2022/03/19 06:46:28;;;;;;;24.25;11.70;;;-1.20;96.90;;;;;;5039230;28;20021;-90
2022/03/19 06:48:54;;;;;;;21.63;11.27;;;-1.10;96.10;;;;;;5039026;28;20071;-90
2022/03/19 06:51:19;;;;;;;20.17;10.40;;;-1.10;96.10;;;;;;5038974;28;20032;-90
2022/03/19 06:53:46;;;;;;;24.30;11.48;;;-1.00;96.10;;;;;;5038918;28;20021;-91
2022/03/19 06:56:13;;;;;;;25.65;11.90;;;-1.00;95.70;;;;;;5038644;28;20029;-91
2022/03/19 06:58:39;;;;;;;28.65;13.25;;;-0.90;95.00;;;;;;5038593;28;20055;-91
2022/03/19 07:01:05;;;;;;;35.20;13.95;;;-0.80;95.00;;;;;;5038931;28;20084;-91
2022/03/19 07:03:31;;;;;;;19.92;10.20;;;-0.80;94.10;;;;;;5038617;28;20053;-91
2022/03/19 07:05:57;;;;;;;31.50;13.48;;;-0.80;93.70;;;;;;5038800;28;20025;-91
2022/03/19 07:08:22;;;;;;;18.60;9.95;;;-0.70;94.00;;;;;;5039675;28;20028;-90
2022/03/19 07:10:52;;;;;;;19.23;9.25;;;-0.70;93.20;;;;;;5038977;28;20116;-91
2022/03/19 07:13:18;;;;;;;21.10;10.40;;;-0.70;92.60;;;;;;5039625;28;20028;-91
2022/03/19 07:15:44;;;;;;;17.23;9.63;;;-0.70;92.50;;;;;;5039059;28;20029;-91
2022/03/19 07:18:09;;;;;;;19.67;8.65;;;-0.60;91.60;;;;;;5041325;28;21506;-91
2022/03/19 07:20:35;;;;;;;20.60;9.30;;;-0.60;91.80;;;;;;5058454;28;20020;-91
2022/03/19 07:23:02;;;;;;;16.42;8.30;;;-0.50;91.30;;;;;;5058383;28;20055;-91
2022/03/19 07:25:30;;;;;;;13.82;7.20;;;-0.40;90.50;;;;;;5058533;28;20028;-91
2022/03/19 07:27:59;;;;;;;25.15;10.65;;;-0.40;89.00;;;;;;5058743;28;20387;-91
2022/03/19 07:30:25;;;;;;;15.90;8.40;;;-0.30;88.30;;;;;;5058363;28;20464;-91
2022/03/19 07:32:51;;;;;;;14.32;7.07;;;-0.30;86.50;;;;;;5058531;28;20028;-90
2022/03/19 07:35:17;;;;;;;18.00;7.68;;;-0.20;86.40;;;;;;5058444;28;20079;-91
2022/03/19 07:37:43;;;;;;;13.02;6.82;;;-0.20;86.70;;;;;;5058297;28;20024;-91
2022/03/19 07:40:15;;;;;;;16.73;8.10;;;-0.20;84.70;;;;;;5058280;28;20020;-90
2022/03/19 07:42:42;;;;;;;14.55;7.70;;;-0.10;84.20;;;;;;5058259;28;20113;-91
2022/03/19 07:45:08;;;;;;;12.75;7.70;;;-0.10;84.50;;;;;;5058002;28;20070;-91
2022/03/19 07:47:34;;;;;;;14.70;7.15;;;-0.10;84.30;;;;;;5058116;28;20107;-91
2022/03/19 07:50:01;;;;;;;14.77;7.90;;;-0.10;84.30;;;;;;5058471;28;20032;-91
2022/03/19 07:52:27;;;;;;;12.38;7.50;;;0.00;83.70;;;;;;5058062;28;20062;-92
2022/03/19 07:54:56;;;;;;;13.60;7.20;;;0.00;84.50;;;;;;5057890;28;20426;-92
2022/03/19 07:57:24;;;;;;;16.10;6.93;;;0.00;83.90;;;;;;5057782;28;20029;-92
2022/03/19 07:59:51;;;;;;;14.15;7.32;;;0.10;83.70;;;;;;5057842;28;20025;-92
2022/03/19 08:02:17;;;;;;;14.43;7.30;;;0.10;83.30;;;;;;5057792;28;20031;-92
2022/03/19 08:04:42;;;;;;;36.50;18.23;;;0.20;84.20;;;;;;5057029;28;20052;-92
2022/03/19 08:07:08;;;;;;;17.50;7.93;;;0.20;82.80;;;;;;5057303;28;20074;-92
2022/03/19 08:09:34;;;;;;;24.00;10.82;;;0.30;82.00;;;;;;5057802;28;20059;-92
2022/03/19 08:12:00;;;;;;;32.15;13.75;;;0.40;82.80;;;;;;5057873;28;20078;-92
2022/03/19 08:14:29;;;;;;;34.25;15.00;;;0.40;83.60;;;;;;5057456;28;20028;-92
2022/03/19 08:16:55;;;;;;;11.82;7.05;;;0.50;82.50;;;;;;5057848;28;20040;-92
2022/03/19 08:19:24;;;;;;;14.52;7.10;;;0.50;80.80;;;;;;5066577;28;20048;-91
2022/03/19 08:21:52;;;;;;;12.05;6.63;;;0.60;81.10;;;;;;5073479;28;20461;-91
2022/03/19 08:24:18;;;;;;;11.43;6.90;;;0.60;80.90;;;;;;5073938;28;20017;-91
2022/03/19 08:26:44;;;;;;;19.58;10.45;;;0.70;80.60;;;;;;5073991;28;20025;-91
2022/03/19 08:29:09;;;;;;;11.07;7.05;;;0.70;81.30;;;;;;5074703;28;20025;-91
2022/03/19 08:31:35;;;;;;;13.50;6.40;;;0.80;80.20;;;;;;5074104;28;20029;-93
2022/03/19 08:34:01;;;;;;;34.47;17.05;;;0.90;76.70;;;;;;5074058;28;20139;-91
2022/03/19 08:36:26;;;;;;;12.85;6.90;;;0.90;75.20;;;;;;5074852;28;20029;-91
2022/03/19 08:41:36;;;;;;;11.35;7.10;;;1.00;75.40;;;;;;5073395;28;20035;-91
2022/03/19 08:44:05;;;;;;;21.80;10.93;;;1.10;76.20;;;;;;5073669;28;20032;-91
2022/03/19 08:46:31;;;;;;;21.02;11.88;;;1.20;75.70;;;;;;5073533;28;20025;-91
2022/03/19 08:48:56;;;;;;;15.23;8.65;;;1.20;74.50;;;;;;5073187;28;20513;-92
2022/03/19 08:51:40;;;;;;;14.88;9.18;;;1.30;73.10;;;;;;5073586;28;20060;-91
2022/03/19 08:54:17;;;;;;;9.85;6.80;;;1.40;73.00;;;;;;5073625;28;20068;-91
2022/03/19 08:56:44;;;;;;;20.33;13.18;;;1.40;73.10;;;;;;5073528;28;20107;-91
2022/03/19 08:59:11;;;;;;;35.03;22.27;;;1.50;70.40;;;;;;5074302;28;20159;-91
2022/03/19 09:01:38;;;;;;;11.13;8.20;;;1.50;71.10;;;;;;5073572;28;20024;-90
2022/03/19 09:04:04;;;;;;;22.17;9.60;;;1.60;72.30;;;;;;5072064;28;20131;-90
2022/03/19 09:06:30;;;;;;;47.58;18.25;;;1.70;70.30;;;;;;5072319;28;20025;-91
2022/03/19 09:08:56;;;;;;;56.22;26.83;;;1.70;69.60;;;;;;5073255;28;20035;-91
2022/03/19 09:11:23;;;;;;;22.45;13.57;;;1.70;69.60;;;;;;5074063;28;20115;-91
2022/03/19 09:13:50;;;;;;;36.63;20.55;;;1.80;68.80;;;;;;5073464;28;20479;-90
2022/03/19 09:16:17;;;;;;;18.33;11.88;;;1.80;69.70;;;;;;5074277;28;20029;-91
2022/03/19 09:18:43;;;;;;;28.63;17.83;;;1.90;69.60;;;;;;5073094;28;20049;-91
2022/03/19 09:21:08;;;;;;;22.08;13.25;;;1.90;69.20;;;;;;5073352;28;20070;-91
2022/03/19 09:23:34;;;;;;;12.20;8.07;;;1.90;68.80;;;;;;5073122;28;20021;-91
2022/03/19 09:26:00;;;;;;;17.23;11.60;;;2.00;68.90;;;;;;5073135;28;20020;-91
2022/03/19 09:28:26;;;;;;;16.70;9.82;;;2.00;67.90;;;;;;5073201;28;20140;-91
2022/03/19 09:30:51;;;;;;;10.63;6.32;;;2.10;68.00;;;;;;5072992;28;20049;-91
2022/03/19 09:33:18;;;;;;;16.85;9.60;;;2.10;66.60;;;;;;5073193;28;20060;-91
2022/03/19 09:35:45;;;;;;;11.05;6.22;;;2.20;65.00;;;;;;5072978;28;20035;-91
2022/03/19 09:38:11;;;;;;;10.43;5.28;;;2.20;63.10;;;;;;5073220;28;20107;-92
2022/03/19 09:40:38;;;;;;;13.75;9.68;;;2.20;64.50;;;;;;5072761;28;20533;-91
2022/03/19 09:43:04;;;;;;;10.27;5.45;;;2.30;65.10;;;;;;5072963;28;20029;-91
2022/03/19 09:45:29;;;;;;;9.10;5.05;;;2.30;64.60;;;;;;5072769;28;20035;-91
2022/03/19 09:47:56;;;;;;;8.27;5.10;;;2.30;64.00;;;;;;5072922;28;20024;-91
2022/03/19 09:50:22;;;;;;;8.45;4.72;;;2.20;63.70;;;;;;5072702;28;20032;-91
2022/03/19 09:52:53;;;;;;;9.13;5.47;;;2.30;63.90;;;;;;5073179;28;20024;-92
2022/03/19 09:55:20;;;;;;;8.00;5.20;;;2.30;64.00;;;;;;5073098;28;20390;-91
2022/03/19 09:57:46;;;;;;;11.07;5.43;;;2.30;65.00;;;;;;5073043;28;20364;-91
2022/03/19 10:00:13;;;;;;;15.63;9.00;;;2.40;64.70;;;;;;5072844;28;20047;-91
2022/03/19 10:03:02;;;;;;;10.43;7.15;;;2.50;63.80;;;;;;5075911;28;20016;-91
2022/03/19 10:08:36;;;;;;;15.35;9.38;;;2.50;62.70;;;;;;5078359;28;20036;-91
2022/03/19 10:11:08;;;;;;;57.25;27.73;;;2.60;63.20;;;;;;5076572;28;20030;-90
2022/03/19 10:13:44;;;;;;;13.63;5.95;;;2.70;62.80;;;;;;5076493;28;20020;-90
2022/03/19 10:16:10;;;;;;;7.13;4.53;;;2.70;62.80;;;;;;5076459;28;20391;-90
2022/03/19 10:18:36;;;;;;;25.52;10.73;;;2.70;62.50;;;;;;5077000;28;20052;-90
2022/03/19 10:21:24;;;;;;;12.60;6.47;;;2.70;62.90;;;;;;5076651;28;20030;-91
2022/03/19 10:23:50;;;;;;;54.00;21.20;;;2.70;62.50;;;;;;5075619;28;20033;-91
2022/03/19 10:26:31;;;;;;;15.25;5.35;;;2.70;61.90;;;;;;5077426;28;20485;-90
2022/03/19 10:28:57;;;;;;;149.60;69.65;;;2.70;61.20;;;;;;5076300;28;20043;-91
2022/03/19 10:31:44;;;;;;;11.30;6.40;;;2.70;62.00;;;;;;5076273;28;20471;-90
2022/03/19 10:34:09;;;;;;;12.05;5.38;;;2.70;61.00;;;;;;5076183;28;20181;-90
2022/03/19 10:36:40;;;;;;;7.97;5.47;;;2.70;60.70;;;;;;5076031;28;20048;-90
2022/03/19 10:39:18;;;;;;;;;;;2.60;61.00;;;;;;5076552;28;20115;-90
2022/03/19 10:41:44;;;;;;;9.93;5.20;;;2.60;60.70;;;;;;5076362;28;19950;-90
2022/03/19 10:44:16;;;;;;;7.18;4.95;;;2.70;60.70;;;;;;5077061;28;20066;-90
2022/03/19 10:46:54;;;;;;;7.53;4.78;;;2.70;59.90;;;;;;5076045;28;20025;-91
2022/03/19 10:49:23;;;;;;;10.25;5.20;;;2.70;59.10;;;;;;5076063;28;20021;-90
2022/03/19 10:51:54;;;;;;;7.38;4.72;;;2.70;60.10;;;;;;5076323;28;20106;-91
2022/03/19 10:54:20;;;;;;;6.15;4.55;;;2.70;59.90;;;;;;5075857;28;20466;-90
2022/03/19 10:56:47;;;;;;;11.00;4.80;;;2.70;58.60;;;;;;5077133;28;20024;-91
2022/03/19 10:59:13;;;;;;;6.65;4.15;;;2.80;59.10;;;;;;5075634;28;20020;-90
2022/03/19 11:01:41;;;;;;;10.45;4.50;;;2.80;57.80;;;;;;5075743;28;20485;-90
2022/03/19 11:04:08;;;;;;;7.95;3.83;;;2.80;57.20;;;;;;5075752;28;20060;-90
2022/03/19 11:06:40;;;;;;;6.00;4.50;;;2.80;57.20;;;;;;5076338;28;20044;-91
2022/03/19 11:09:10;;;;;;;9.25;5.05;;;2.80;57.40;;;;;;5075850;28;20029;-90
2022/03/19 11:11:58;;;;;;;4.07;3.42;;;2.80;58.20;;;;;;5076211;28;20101;-90
2022/03/19 11:14:27;;;;;;;6.78;3.72;;;2.90;56.30;;;;;;5076276;28;20085;-90
2022/03/19 11:17:25;;;;;;;4.43;3.45;;;3.00;56.90;;;;;;5075571;28;20059;-90
2022/03/19 11:19:52;;;;;;;9.52;5.60;;;3.00;56.00;;;;;;5074285;28;20124;-90
2022/03/19 11:22:18;;;;;;;5.20;4.05;;;3.00;56.20;;;;;;5075324;28;20066;-90
2022/03/19 11:25:12;;;;;;;4.97;3.25;;;3.00;55.10;;;;;;5075320;28;20031;-90
2022/03/19 11:27:41;;;;;;;6.97;4.65;;;3.10;54.40;;;;;;5058311;28;20036;-90
2022/03/19 11:30:20;;;;;;;7.28;3.58;;;3.10;54.60;;;;;;5075338;28;20024;-91
2022/03/19 11:33:04;;;;;;;4.28;3.10;;;3.10;55.40;;;;;;5075141;28;20427;-89
2022/03/19 11:35:41;;;;;;;14.25;7.32;;;3.10;55.10;;;;;;5074975;28;20025;-90
2022/03/19 11:38:13;;;;;;;7.43;6.68;;;3.10;55.90;;;;;;5074894;28;20086;-90
2022/03/19 11:40:45;;;;;;;16.27;7.47;;;3.10;55.50;;;;;;5075142;28;20028;-90
2022/03/19 11:43:16;;;;;;;4.15;3.08;;;3.10;55.40;;;;;;5074991;28;20016;-90
2022/03/19 11:45:52;;;;;;;5.20;3.03;;;3.20;54.10;;;;;;5074949;28;20016;-90
2022/03/19 11:48:37;;;;;;;8.57;3.22;;;3.20;53.60;;;;;;5074965;28;20025;-89
2022/03/19 11:51:31;;;;;;;7.50;4.40;;;3.20;52.90;;;;;;5074839;28;20027;-90
2022/03/19 11:53:59;;;;;;;7.18;3.67;;;3.30;53.30;;;;;;5065722;28;20040;-90
2022/03/19 11:56:46;;;;;;;3.58;2.67;;;3.30;53.70;;;;;;5074630;28;20074;-90
2022/03/19 11:59:24;;;;;;;4.05;3.08;;;3.30;52.70;;;;;;5057835;28;20499;-89
2022/03/19 12:01:54;;;;;;;9.25;5.32;;;3.30;53.10;;;;;;5074715;28;20017;-90
2022/03/19 12:04:21;;;;;;;13.70;8.32;;;3.30;53.40;;;;;;5075302;28;20020;-90
2022/03/19 12:06:58;;;;;;;5.75;3.58;;;3.40;53.50;;;;;;5075342;28;20115;-89
2022/03/19 12:09:39;;;;;;;6.20;3.58;;;3.40;53.20;;;;;;5074309;28;20020;-89
2022/03/19 12:12:11;;;;;;;6.20;3.70;;;3.40;51.10;;;;;;5075827;28;20024;-90
2022/03/19 12:14:37;;;;;;;7.85;3.45;;;3.50;52.50;;;;;;5074245;28;20483;-90
2022/03/19 12:17:28;;;;;;;4.43;3.08;;;3.50;52.80;;;;;;5074358;28;20039;-90
2022/03/19 12:20:00;;;;;;;6.00;3.58;;;3.50;52.90;;;;;;5074232;28;20052;-90
2022/03/19 12:22:48;;;;;;;8.60;3.38;;;3.60;52.80;;;;;;5074255;28;20049;-90
2022/03/19 12:25:34;;;;;;;7.68;3.63;;;3.70;53.00;;;;;;5074581;28;20020;-90
2022/03/19 12:28:01;;;;;;;5.40;4.22;;;3.80;52.50;;;;;;5074111;28;20024;-93
2022/03/19 12:30:26;;;;;;;6.07;3.60;;;3.80;52.50;;;;;;5074090;28;20206;-91
2022/03/19 12:32:54;;;;;;;6.20;3.58;;;3.90;52.50;;;;;;5074055;28;20033;-91
2022/03/19 12:35:25;;;;;;;6.10;3.42;;;4.00;52.20;;;;;;5074210;28;20437;-92
2022/03/19 12:37:54;;;;;;;;;;;4.10;52.20;;;;;;5074444;28;20024;-91
2022/03/19 12:40:28;;;;;;;6.70;3.10;;;4.10;51.40;;;;;;5073801;28;19998;-91
2022/03/19 12:42:58;;;;;;;6.90;4.28;;;4.30;52.40;;;;;;5073303;28;20031;-91
2022/03/19 12:45:36;;;;;;;6.25;3.22;;;4.40;52.00;;;;;;5073425;28;20027;-91
2022/03/19 12:48:08;;;;;;;7.43;3.92;;;4.60;51.10;;;;;;5073662;28;20082;-91
2022/03/19 12:50:33;;;;;;;6.15;3.95;;;4.60;50.10;;;;;;5073698;28;20036;-92